createdAt,value
2023-06-01T00:00:05.077Z,88618.00
2023-06-01T00:01:05.142Z,88621.00
2023-06-01T00:02:05.236Z,88621.00
2023-06-01T00:03:05.552Z,88621.00
2023-06-01T00:04:05.410Z,88619.00
2023-06-01T00:05:05.434Z,88621.00
2023-06-01T00:06:05.493Z,88623.00
2023-06-01T00:07:05.585Z,88623.00
2023-06-01T00:08:05.683Z,88623.00
2023-06-01T00:09:05.753Z,88623.00
2023-06-01T00:10:05.789Z,88625.00
2023-06-01T00:11:05.863Z,88627.00
2023-06-01T00:12:05.931Z,88627.00
2023-06-01T00:13:06.009Z,88625.00
2023-06-01T00:14:06.062Z,88629.00
2023-06-01T00:15:06.134Z,88629.00
2023-06-01T00:16:06.289Z,88627.00
2023-06-01T00:17:06.291Z,88625.00
2023-06-01T00:18:06.444Z,88627.00
2023-06-01T00:19:06.415Z,88627.00
2023-06-01T00:20:06.498Z,88625.00
2023-06-01T00:21:06.584Z,88625.00
2023-06-01T00:22:06.636Z,88625.00
2023-06-01T00:23:06.699Z,88623.00
2023-06-01T00:24:06.773Z,88623.00
2023-06-01T00:25:06.781Z,88621.00
2023-06-01T00:26:06.811Z,88621.00
2023-06-01T00:27:06.823Z,88621.00
2023-06-01T00:28:06.848Z,88618.00
2023-06-01T00:29:06.865Z,88618.00
2023-06-01T00:30:06.877Z,88619.00
2023-06-01T00:31:06.922Z,88618.00
2023-06-01T00:32:06.916Z,88619.00
2023-06-01T00:33:07.020Z,88619.00
2023-06-01T00:34:06.952Z,88619.00
2023-06-01T00:35:06.995Z,88619.00
2023-06-01T00:36:06.984Z,88621.00
2023-06-01T00:37:07.070Z,88618.00
2023-06-01T00:38:07.033Z,88618.00
2023-06-01T00:39:07.074Z,88618.00
2023-06-01T00:40:07.078Z,88614.00
2023-06-01T00:41:07.091Z,88614.00
2023-06-01T00:42:07.113Z,88614.00
2023-06-01T00:43:07.140Z,88614.00
2023-06-01T00:44:07.146Z,88614.00
2023-06-01T00:45:07.213Z,88616.00
2023-06-01T00:46:07.184Z,88616.00
2023-06-01T00:47:07.256Z,88614.00
2023-06-01T00:48:07.251Z,88612.00
2023-06-01T00:49:07.246Z,88614.00
2023-06-01T00:50:07.285Z,88614.00
2023-06-01T00:51:07.335Z,88614.00
2023-06-01T00:52:07.421Z,88614.00
2023-06-01T00:53:07.507Z,88612.00
2023-06-01T00:54:07.590Z,88610.00
2023-06-01T00:55:07.699Z,88610.00
2023-06-01T00:56:07.747Z,88606.00
2023-06-01T00:57:07.826Z,88608.00
2023-06-01T00:58:07.909Z,88608.00
2023-06-01T00:59:07.982Z,88608.00
2023-06-01T01:00:08.058Z,88604.00
2023-06-01T01:01:08.176Z,88598.00
2023-06-01T01:02:08.205Z,88604.00
2023-06-01T01:03:08.419Z,88604.00
2023-06-01T01:04:08.372Z,88606.00
2023-06-01T01:05:08.448Z,88610.00
2023-06-01T01:06:08.517Z,88606.00
2023-06-01T01:07:08.584Z,88608.00
2023-06-01T01:08:08.673Z,88606.00
2023-06-01T01:09:08.742Z,88608.00
2023-06-01T01:10:08.805Z,88608.00
2023-06-01T01:11:08.827Z,88610.00
2023-06-01T01:12:08.829Z,88608.00
2023-06-01T01:13:08.841Z,88610.00
2023-06-01T01:14:08.876Z,88612.00
2023-06-01T01:15:08.873Z,88612.00
2023-06-01T01:16:08.902Z,88612.00
2023-06-01T01:17:08.949Z,88614.00
2023-06-01T01:18:08.979Z,88616.00
2023-06-01T01:19:08.946Z,88614.00
2023-06-01T01:20:08.944Z,88614.00
2023-06-01T01:21:08.993Z,88616.00
2023-06-01T01:22:09.086Z,88618.00
2023-06-01T01:23:09.141Z,88618.00
2023-06-01T01:24:09.323Z,88616.00
2023-06-01T01:25:09.332Z,88616.00
2023-06-01T01:26:09.401Z,88619.00
2023-06-01T01:27:09.545Z,88618.00
2023-06-01T01:28:09.669Z,88616.00
2023-06-01T01:29:09.632Z,88618.00
2023-06-01T01:30:09.786Z,88618.00
2023-06-01T01:31:09.824Z,88618.00
2023-06-01T01:32:09.853Z,88619.00
2023-06-01T01:33:09.958Z,88616.00
2023-06-01T01:34:09.989Z,88618.00
2023-06-01T01:35:10.059Z,88619.00
2023-06-01T01:36:10.147Z,88619.00
2023-06-01T01:37:10.235Z,88619.00
2023-06-01T01:38:10.316Z,88618.00
2023-06-01T01:39:10.390Z,88618.00
2023-06-01T01:40:10.470Z,88618.00
2023-06-01T01:41:10.558Z,88616.00
2023-06-01T01:42:10.637Z,88616.00
2023-06-01T01:43:10.725Z,88618.00
2023-06-01T01:44:10.846Z,88621.00
2023-06-01T01:45:10.910Z,88619.00
2023-06-01T01:46:10.979Z,88619.00
2023-06-01T01:47:11.109Z,88621.00
2023-06-01T01:48:11.176Z,88619.00
2023-06-01T01:49:11.236Z,88621.00
2023-06-01T01:50:11.324Z,88621.00
2023-06-01T01:51:11.404Z,88619.00
2023-06-01T01:52:11.496Z,88618.00
2023-06-01T01:53:11.555Z,88619.00
2023-06-01T01:54:11.640Z,88619.00
2023-06-01T01:55:11.736Z,88621.00
2023-06-01T01:56:11.789Z,88618.00
2023-06-01T01:57:11.873Z,88616.00
2023-06-01T01:58:11.979Z,88614.00
2023-06-01T01:59:12.059Z,88612.00
2023-06-01T02:00:12.131Z,88614.00
2023-06-01T02:01:12.239Z,88618.00
2023-06-01T02:02:12.328Z,88616.00
2023-06-01T02:03:12.414Z,88616.00
2023-06-01T02:04:12.338Z,88614.00
2023-06-01T02:05:12.348Z,88614.00
2023-06-01T02:06:12.357Z,88618.00
2023-06-01T02:07:12.366Z,88616.00
2023-06-01T02:08:12.386Z,88614.00
2023-06-01T02:09:12.408Z,88614.00
2023-06-01T02:10:12.421Z,88614.00
2023-06-01T02:11:12.447Z,88614.00
2023-06-01T02:12:12.489Z,88612.00
2023-06-01T02:13:12.589Z,88610.00
2023-06-01T02:14:12.662Z,88610.00
2023-06-01T02:15:12.740Z,88610.00
2023-06-01T02:16:12.868Z,88614.00
2023-06-01T02:17:12.918Z,88612.00
2023-06-01T02:18:13.007Z,88614.00
2023-06-01T02:19:13.045Z,88612.00
2023-06-01T02:20:13.161Z,88612.00
2023-06-01T02:21:13.185Z,88612.00
2023-06-01T02:22:13.282Z,88614.00
2023-06-01T02:23:13.344Z,88614.00
2023-06-01T02:24:13.432Z,88614.00
2023-06-01T02:25:13.538Z,88616.00
2023-06-01T02:26:13.543Z,88618.00
2023-06-01T02:27:13.615Z,88614.00
2023-06-01T02:28:13.678Z,88616.00
2023-06-01T02:29:13.745Z,88616.00
2023-06-01T02:30:13.849Z,88610.00
2023-06-01T02:31:13.900Z,88614.00
2023-06-01T02:32:13.976Z,88614.00
2023-06-01T02:33:14.060Z,88608.00
2023-06-01T02:34:14.128Z,88608.00
2023-06-01T02:35:14.208Z,88608.00
2023-06-01T02:36:14.292Z,88606.00
2023-06-01T02:37:14.392Z,88606.00
2023-06-01T02:38:14.424Z,88608.00
2023-06-01T02:39:14.453Z,88606.00
2023-06-01T02:40:14.441Z,88610.00
2023-06-01T02:41:14.450Z,88610.00
2023-06-01T02:42:14.482Z,88606.00
2023-06-01T02:43:14.506Z,88612.00
2023-06-01T02:44:14.517Z,88612.00
2023-06-01T02:45:14.528Z,88610.00
2023-06-01T02:46:14.652Z,88612.00
2023-06-01T02:47:14.631Z,88614.00
2023-06-01T02:48:14.709Z,88610.00
2023-06-01T02:49:14.796Z,88612.00
2023-06-01T02:50:14.911Z,88612.00
2023-06-01T02:51:14.972Z,88612.00
2023-06-01T02:52:15.125Z,88610.00
2023-06-01T02:53:15.152Z,88608.00
2023-06-01T02:54:15.247Z,88606.00
2023-06-01T02:55:15.368Z,88604.00
2023-06-01T02:56:15.402Z,88606.00
2023-06-01T02:57:15.470Z,88604.00
2023-06-01T02:58:15.563Z,88604.00
2023-06-01T02:59:15.640Z,88600.00
2023-06-01T03:00:15.784Z,88602.00
2023-06-01T03:01:15.846Z,88598.00
2023-06-01T03:02:15.866Z,88604.00
2023-06-01T03:03:15.952Z,88598.00
2023-06-01T03:04:16.119Z,88598.00
2023-06-01T03:05:16.163Z,88596.00
2023-06-01T03:06:16.167Z,88596.00
2023-06-01T03:07:16.252Z,88598.00
2023-06-01T03:08:16.356Z,88598.00
2023-06-01T03:09:16.448Z,88598.00
2023-06-01T03:10:16.522Z,88596.00
2023-06-01T03:11:16.634Z,88596.00
2023-06-01T03:12:16.681Z,88598.00
2023-06-01T03:13:16.741Z,88598.00
2023-06-01T03:14:16.802Z,88596.00
2023-06-01T03:15:16.878Z,88600.00
2023-06-01T03:16:16.996Z,88598.00
2023-06-01T03:17:16.954Z,88600.00
2023-06-01T03:18:17.037Z,88596.00
2023-06-01T03:19:17.030Z,88598.00
2023-06-01T03:20:17.101Z,88596.00
2023-06-01T03:21:17.188Z,88600.00
2023-06-01T03:22:17.162Z,88598.00
2023-06-01T03:23:17.206Z,88600.00
2023-06-01T03:24:17.214Z,88602.00
2023-06-01T03:25:17.218Z,88600.00
2023-06-01T03:26:17.262Z,88596.00
2023-06-01T03:27:17.282Z,88598.00
2023-06-01T03:28:17.359Z,88598.00
2023-06-01T03:29:17.430Z,88596.00
2023-06-01T03:30:17.499Z,88596.00
2023-06-01T03:31:17.540Z,88596.00
2023-06-01T03:32:17.560Z,88598.00
2023-06-01T03:33:17.588Z,88594.00
2023-06-01T03:34:17.599Z,88592.00
2023-06-01T03:35:17.656Z,88592.00
2023-06-01T03:36:17.720Z,88598.00
2023-06-01T03:37:17.816Z,88596.00
2023-06-01T03:38:17.900Z,88598.00
2023-06-01T03:39:17.971Z,88598.00
2023-06-01T03:40:18.036Z,88598.00
2023-06-01T03:41:18.079Z,88598.00
2023-06-01T03:42:18.137Z,88600.00
2023-06-01T03:43:18.108Z,88600.00
2023-06-01T03:44:18.164Z,88596.00
2023-06-01T03:45:18.219Z,88596.00
2023-06-01T03:46:18.288Z,88598.00
2023-06-01T03:47:18.322Z,88600.00
2023-06-01T03:48:18.363Z,88598.00
2023-06-01T03:49:18.373Z,88598.00
2023-06-01T03:50:18.391Z,88598.00
2023-06-01T03:51:18.398Z,88602.00
2023-06-01T03:52:18.416Z,88600.00
2023-06-01T03:53:18.435Z,88600.00
2023-06-01T03:54:18.452Z,88602.00
2023-06-01T03:55:18.474Z,88598.00
2023-06-01T03:56:18.499Z,88600.00
2023-06-01T03:57:18.525Z,88596.00
2023-06-01T03:58:18.530Z,88602.00
2023-06-01T03:59:18.545Z,88600.00
2023-06-01T04:00:18.592Z,88600.00
2023-06-01T04:01:18.569Z,88600.00
2023-06-01T04:02:18.629Z,88598.00
2023-06-01T04:03:18.666Z,88598.00
2023-06-01T04:04:18.704Z,88596.00
2023-06-01T04:05:18.723Z,88598.00
2023-06-01T04:06:18.814Z,88596.00
2023-06-01T04:07:18.761Z,88600.00
2023-06-01T04:08:18.816Z,88600.00
2023-06-01T04:09:18.870Z,88600.00
2023-06-01T04:10:18.960Z,88598.00
2023-06-01T04:11:18.945Z,88598.00
2023-06-01T04:12:18.967Z,88598.00
2023-06-01T04:13:19.011Z,88596.00
2023-06-01T04:14:19.070Z,88598.00
2023-06-01T04:15:19.126Z,88592.00
2023-06-01T04:16:19.243Z,88592.00
2023-06-01T04:17:19.221Z,88594.00
2023-06-01T04:18:19.406Z,88592.00
2023-06-01T04:19:19.361Z,88588.00
2023-06-01T04:20:19.446Z,88590.00
2023-06-01T04:21:19.555Z,88588.00
2023-06-01T04:22:19.591Z,88590.00
2023-06-01T04:23:19.691Z,88590.00
2023-06-01T04:24:19.780Z,88588.00
2023-06-01T04:25:20.189Z,88586.00
2023-06-01T04:26:19.901Z,88588.00
2023-06-01T04:27:19.947Z,88588.00
2023-06-01T04:28:19.992Z,88586.00
2023-06-01T04:29:20.015Z,88584.00
2023-06-01T04:30:20.085Z,88586.00
2023-06-01T04:31:20.116Z,88588.00
2023-06-01T04:32:20.097Z,88586.00
2023-06-01T04:33:20.150Z,88586.00
2023-06-01T04:34:20.153Z,88586.00
2023-06-01T04:35:20.250Z,88588.00
2023-06-01T04:36:20.186Z,88588.00
2023-06-01T04:37:20.197Z,88588.00
2023-06-01T04:38:20.213Z,88586.00
2023-06-01T04:39:20.235Z,88586.00
2023-06-01T04:40:20.231Z,88590.00
2023-06-01T04:41:20.262Z,88588.00
2023-06-01T04:42:20.275Z,88586.00
2023-06-01T04:43:20.371Z,88584.00
2023-06-01T04:44:20.303Z,88588.00
2023-06-01T04:45:20.416Z,88586.00
2023-06-01T04:46:20.336Z,88586.00
2023-06-01T04:47:20.312Z,88586.00
2023-06-01T04:48:20.320Z,88586.00
2023-06-01T04:49:20.340Z,88584.00
2023-06-01T04:50:20.353Z,88584.00
2023-06-01T04:51:20.393Z,88580.00
2023-06-01T04:52:20.383Z,88582.00
2023-06-01T04:53:20.393Z,88584.00
2023-06-01T04:54:20.403Z,88582.00
2023-06-01T04:55:20.421Z,88582.00
2023-06-01T04:56:20.508Z,88582.00
2023-06-01T04:57:20.565Z,88582.00
2023-06-01T04:58:20.660Z,88580.00
2023-06-01T04:59:20.713Z,88578.00
2023-06-01T05:00:20.809Z,88578.00
2023-06-01T05:01:20.916Z,88578.00
2023-06-01T05:02:20.996Z,88576.00
2023-06-01T05:03:21.150Z,88574.00
2023-06-01T05:04:21.167Z,88574.00
2023-06-01T05:05:21.245Z,88574.00
2023-06-01T05:06:21.332Z,88574.00
2023-06-01T05:07:21.377Z,88572.00
2023-06-01T05:08:21.442Z,88574.00
2023-06-01T05:09:21.454Z,88572.00
2023-06-01T05:10:21.489Z,88572.00
2023-06-01T05:11:21.477Z,88570.00
2023-06-01T05:12:21.980Z,88570.00
2023-06-01T05:13:21.514Z,88568.00
2023-06-01T05:14:21.529Z,88568.00
2023-06-01T05:15:21.551Z,88566.00
2023-06-01T05:16:21.649Z,88570.00
2023-06-01T05:17:21.601Z,88566.00
2023-06-01T05:18:21.605Z,88564.00
2023-06-01T05:19:21.597Z,88563.00
2023-06-01T05:20:21.625Z,88564.00
2023-06-01T05:21:21.697Z,88561.00
2023-06-01T05:22:21.737Z,88564.00
2023-06-01T05:23:21.851Z,88563.00
2023-06-01T05:24:21.916Z,88561.00
2023-06-01T05:25:22.076Z,88566.00
2023-06-01T05:26:22.089Z,88564.00
2023-06-01T05:27:22.166Z,88566.00
2023-06-01T05:28:22.268Z,88564.00
2023-06-01T05:29:22.266Z,88566.00
2023-06-01T05:30:22.278Z,88564.00
2023-06-01T05:31:22.315Z,88563.00
2023-06-01T05:32:22.334Z,88564.00
2023-06-01T05:33:22.325Z,88566.00
2023-06-01T05:34:22.349Z,88563.00
2023-06-01T05:35:22.408Z,88561.00
2023-06-01T05:36:22.379Z,88559.00
2023-06-01T05:37:22.413Z,88561.00
2023-06-01T05:38:22.479Z,88559.00
2023-06-01T05:39:22.515Z,88559.00
2023-06-01T05:40:22.589Z,88557.00
2023-06-01T05:41:22.675Z,88559.00
2023-06-01T05:42:22.762Z,88557.00
2023-06-01T05:43:22.734Z,88555.00
2023-06-01T05:44:22.773Z,88555.00
2023-06-01T05:45:22.763Z,88557.00
2023-06-01T05:46:22.801Z,88557.00
2023-06-01T05:47:23.663Z,88555.00
2023-06-01T05:48:22.812Z,88555.00
2023-06-01T05:49:22.842Z,88555.00
2023-06-01T05:50:22.851Z,88553.00
2023-06-01T05:51:22.881Z,88549.00
2023-06-01T05:52:22.891Z,88549.00
2023-06-01T05:53:22.919Z,88545.00
2023-06-01T05:54:22.953Z,88543.00
2023-06-01T05:55:23.271Z,88543.00
2023-06-01T05:56:23.605Z,88545.00
2023-06-01T05:57:23.049Z,88543.00
2023-06-01T05:58:23.009Z,88541.00
2023-06-01T05:59:23.040Z,88539.00
2023-06-01T06:00:23.065Z,88537.00
2023-06-01T06:01:23.038Z,88539.00
2023-06-01T06:02:23.139Z,88541.00
2023-06-01T06:03:23.276Z,88539.00
2023-06-01T06:04:23.109Z,88541.00
2023-06-01T06:05:23.089Z,88539.00
2023-06-01T06:06:24.767Z,88543.00
2023-06-01T06:07:23.154Z,88539.00
2023-06-01T06:08:23.117Z,88537.00
2023-06-01T06:09:23.201Z,88537.00
2023-06-01T06:10:23.116Z,88537.00
2023-06-01T06:11:23.132Z,88535.00
2023-06-01T06:12:23.164Z,88537.00
2023-06-01T06:13:23.170Z,88541.00
2023-06-01T06:14:24.154Z,88537.00
2023-06-01T06:15:23.168Z,88537.00
2023-06-01T06:16:23.201Z,88535.00
2023-06-01T06:17:23.255Z,88537.00
2023-06-01T06:18:23.175Z,88537.00
2023-06-01T06:19:23.178Z,88535.00
2023-06-01T06:20:23.346Z,88533.00
2023-06-01T06:21:23.207Z,88533.00
2023-06-01T06:22:23.174Z,88533.00
2023-06-01T06:23:23.283Z,88535.00
2023-06-01T06:24:23.283Z,88533.00
2023-06-01T06:25:23.209Z,88531.00
2023-06-01T06:26:23.224Z,88533.00
2023-06-01T06:27:23.229Z,88531.00
2023-06-01T06:28:23.294Z,88531.00
2023-06-01T06:29:23.444Z,88531.00
2023-06-01T06:30:23.454Z,88533.00
2023-06-01T06:31:23.635Z,88531.00
2023-06-01T06:32:23.824Z,88529.00
2023-06-01T06:33:23.669Z,88529.00
2023-06-01T06:34:23.654Z,88527.00
2023-06-01T06:35:23.607Z,88531.00
2023-06-01T06:36:23.621Z,88525.00
2023-06-01T06:37:23.619Z,88529.00
2023-06-01T06:38:23.645Z,88527.00
2023-06-01T06:39:23.894Z,88527.00
2023-06-01T06:40:23.664Z,88527.00
2023-06-01T06:41:23.658Z,88523.00
2023-06-01T06:42:23.676Z,88521.00
2023-06-01T06:43:23.765Z,88523.00
2023-06-01T06:44:23.690Z,88521.00
2023-06-01T06:45:23.692Z,88521.00
2023-06-01T06:46:23.804Z,88521.00
2023-06-01T06:47:23.846Z,88519.00
2023-06-01T06:48:24.214Z,88519.00
2023-06-01T06:49:23.773Z,88519.00
2023-06-01T06:50:23.971Z,88521.00
2023-06-01T06:51:23.971Z,88521.00
2023-06-01T06:52:23.876Z,88519.00
2023-06-01T06:53:24.053Z,88521.00
2023-06-01T06:54:24.125Z,88519.00
2023-06-01T06:55:24.191Z,88519.00
2023-06-01T06:56:24.639Z,88519.00
2023-06-01T06:57:24.086Z,88515.00
2023-06-01T06:58:24.261Z,88515.00
2023-06-01T06:59:24.216Z,88517.00
2023-06-01T07:00:24.214Z,88517.00
2023-06-01T07:01:24.304Z,88515.00
2023-06-01T07:02:24.259Z,88515.00
2023-06-01T07:03:24.924Z,88513.00
2023-06-01T07:04:24.204Z,88511.00
2023-06-01T07:05:24.201Z,88508.00
2023-06-01T07:06:24.197Z,88509.00
2023-06-01T07:07:24.208Z,88511.00
2023-06-01T07:08:24.308Z,88509.00
2023-06-01T07:09:25.175Z,88506.00
2023-06-01T07:10:24.325Z,88508.00
2023-06-01T07:11:24.212Z,88506.00
2023-06-01T07:12:24.186Z,88508.00
2023-06-01T07:13:24.196Z,88508.00
2023-06-01T07:14:24.253Z,88508.00
2023-06-01T07:15:24.185Z,88506.00
2023-06-01T07:16:24.282Z,88508.00
2023-06-01T07:17:24.209Z,88508.00
2023-06-01T07:18:24.209Z,88506.00
2023-06-01T07:19:24.262Z,88506.00
2023-06-01T07:20:24.228Z,88508.00
2023-06-01T07:21:24.245Z,88506.00
2023-06-01T07:22:24.243Z,88506.00
2023-06-01T07:23:24.396Z,88508.00
2023-06-01T07:24:24.247Z,88508.00
2023-06-01T07:25:24.269Z,88506.00
2023-06-01T07:26:24.256Z,88504.00
2023-06-01T07:27:24.400Z,88504.00
2023-06-01T07:28:24.272Z,88504.00
2023-06-01T07:29:24.480Z,88502.00
2023-06-01T07:30:24.335Z,88502.00
2023-06-01T07:31:24.639Z,88502.00
2023-06-01T07:32:24.658Z,88500.00
2023-06-01T07:33:24.922Z,88500.00
2023-06-01T07:34:24.581Z,88494.00
2023-06-01T07:35:24.716Z,88496.00
2023-06-01T07:36:24.681Z,88494.00
2023-06-01T07:37:25.767Z,88496.00
2023-06-01T07:38:24.827Z,88494.00
2023-06-01T07:39:24.864Z,88494.00
2023-06-01T07:40:24.983Z,88492.00
2023-06-01T07:41:24.980Z,88492.00
2023-06-01T07:42:25.005Z,88490.00
2023-06-01T07:43:25.085Z,88490.00
2023-06-01T07:44:25.175Z,88492.00
2023-06-01T07:45:25.087Z,88490.00
2023-06-01T07:46:25.136Z,88486.00
2023-06-01T07:47:25.180Z,88484.00
2023-06-01T07:48:25.550Z,88484.00
2023-06-01T07:49:25.249Z,88478.00
2023-06-01T07:50:25.206Z,88480.00
2023-06-01T07:51:25.263Z,88476.00
2023-06-01T07:52:25.244Z,88480.00
2023-06-01T07:53:26.497Z,88476.00
2023-06-01T07:54:25.317Z,88482.00
2023-06-01T07:55:25.322Z,88480.00
2023-06-01T07:56:25.317Z,88480.00
2023-06-01T07:57:25.420Z,88482.00
2023-06-01T07:58:25.355Z,88484.00
2023-06-01T07:59:25.414Z,88478.00
2023-06-01T08:00:25.355Z,88480.00
2023-06-01T08:01:25.364Z,88480.00
2023-06-01T08:02:26.251Z,88480.00
2023-06-01T08:03:25.453Z,88482.00
2023-06-01T08:04:25.369Z,88478.00
2023-06-01T08:05:25.493Z,88474.00
2023-06-01T08:06:25.389Z,88474.00
2023-06-01T08:07:25.406Z,88474.00
2023-06-01T08:08:25.471Z,88463.00
2023-06-01T08:09:25.541Z,88472.00
2023-06-01T08:10:25.593Z,88463.00
2023-06-01T08:11:25.653Z,88463.00
2023-06-01T08:12:25.722Z,88463.00
2023-06-01T08:13:25.790Z,88459.00
2023-06-01T08:14:25.896Z,88459.00
2023-06-01T08:15:25.971Z,88459.00
2023-06-01T08:16:27.867Z,88457.00
2023-06-01T08:17:26.218Z,88459.00
2023-06-01T08:18:26.093Z,88461.00
2023-06-01T08:19:26.038Z,88459.00
2023-06-01T08:20:26.061Z,88470.00
2023-06-01T08:21:26.076Z,88463.00
2023-06-01T08:22:26.076Z,88463.00
2023-06-01T08:23:26.091Z,88463.00
2023-06-01T08:24:26.131Z,88470.00
2023-06-01T08:25:26.097Z,88463.00
2023-06-01T08:26:26.084Z,88470.00
2023-06-01T08:27:26.150Z,88463.00
2023-06-01T08:28:26.197Z,88470.00
2023-06-01T08:29:41.317Z,88470.00
2023-06-01T08:30:27.674Z,88463.00
2023-06-01T08:31:26.202Z,88472.00
2023-06-01T08:32:26.138Z,88474.00
2023-06-01T08:33:26.129Z,88472.00
2023-06-01T08:34:26.097Z,88472.00
2023-06-01T08:35:26.119Z,88470.00
2023-06-01T08:36:26.134Z,88472.00
2023-06-01T08:37:26.140Z,88474.00
2023-06-01T08:38:26.138Z,88474.00
2023-06-01T08:39:26.156Z,88470.00
2023-06-01T08:40:26.157Z,88472.00
2023-06-01T08:41:26.139Z,88472.00
2023-06-01T08:42:26.176Z,88472.00
2023-06-01T08:43:26.148Z,88474.00
2023-06-01T08:44:26.159Z,88472.00
2023-06-01T08:45:26.196Z,88472.00
2023-06-01T08:46:26.226Z,88470.00
2023-06-01T08:47:26.214Z,88472.00
2023-06-01T08:48:26.292Z,88470.00
2023-06-01T08:49:26.231Z,88463.00
2023-06-01T08:50:26.198Z,88470.00
2023-06-01T08:51:26.233Z,88463.00
2023-06-01T08:52:26.233Z,88472.00
2023-06-01T08:53:26.234Z,88470.00
2023-06-01T08:54:26.282Z,88472.00
2023-06-01T08:55:26.372Z,88463.00
2023-06-01T08:56:26.358Z,88463.00
2023-06-01T08:57:26.389Z,88463.00
2023-06-01T08:58:26.443Z,88463.00
2023-06-01T08:59:26.495Z,88461.00
2023-06-01T09:00:26.477Z,88463.00
2023-06-01T09:01:26.556Z,88459.00
2023-06-01T09:02:26.541Z,88457.00
2023-06-01T09:03:26.627Z,88459.00
2023-06-01T09:04:26.521Z,88459.00
2023-06-01T09:05:26.532Z,88455.00
2023-06-01T09:06:26.523Z,88457.00
2023-06-01T09:07:26.524Z,88457.00
2023-06-01T09:08:26.523Z,88459.00
2023-06-01T09:09:26.717Z,88455.00
2023-06-01T09:10:26.581Z,88453.00
2023-06-01T09:11:26.582Z,88455.00
2023-06-01T09:12:26.509Z,88455.00
2023-06-01T09:13:26.510Z,88455.00
2023-06-01T09:14:26.493Z,88457.00
2023-06-01T09:15:26.521Z,88455.00
2023-06-01T09:16:26.522Z,88453.00
2023-06-01T09:17:26.533Z,88453.00
2023-06-01T09:18:26.520Z,88455.00
2023-06-01T09:19:26.487Z,88455.00
2023-06-01T09:20:26.520Z,88453.00
2023-06-01T09:21:26.496Z,88455.00
2023-06-01T09:22:26.514Z,88457.00
2023-06-01T09:23:26.485Z,88455.00
2023-06-01T09:24:26.504Z,88457.00
2023-06-01T09:25:26.462Z,88457.00
2023-06-01T09:26:26.468Z,88459.00
2023-06-01T09:27:26.545Z,88459.00
2023-06-01T09:28:27.198Z,88459.00
2023-06-01T09:29:26.533Z,88461.00
2023-06-01T09:30:26.469Z,88459.00
2023-06-01T09:31:26.530Z,88459.00
2023-06-01T09:32:26.585Z,88461.00
2023-06-01T09:33:26.477Z,88457.00
2023-06-01T09:34:26.529Z,88457.00
2023-06-01T09:35:26.465Z,88457.00
2023-06-01T09:36:26.504Z,88461.00
2023-06-01T09:37:26.482Z,88457.00
2023-06-01T09:38:26.560Z,88457.00
2023-06-01T09:39:26.588Z,88453.00
2023-06-01T09:40:26.615Z,88457.00
2023-06-01T09:41:26.621Z,88459.00
2023-06-01T09:42:26.663Z,88459.00
2023-06-01T09:43:26.641Z,88457.00
2023-06-01T09:44:26.648Z,88453.00
2023-06-01T09:45:26.637Z,88455.00
2023-06-01T09:46:26.710Z,88451.00
2023-06-01T09:47:26.805Z,88451.00
2023-06-01T09:48:26.725Z,88453.00
2023-06-01T09:49:26.706Z,88453.00
2023-06-01T09:50:26.708Z,88451.00
2023-06-01T09:51:26.736Z,88451.00
2023-06-01T09:52:26.701Z,88449.00
2023-06-01T09:53:26.712Z,88451.00
2023-06-01T09:54:26.708Z,88449.00
2023-06-01T09:55:26.715Z,88448.00
2023-06-01T09:56:26.724Z,88448.00
2023-06-01T09:57:26.716Z,88448.00
2023-06-01T09:58:26.721Z,88444.00
2023-06-01T09:59:26.825Z,88442.00
2023-06-01T10:00:26.739Z,88446.00
2023-06-01T10:01:26.750Z,88444.00
2023-06-01T10:02:26.813Z,88442.00
2023-06-01T10:03:26.822Z,88446.00
2023-06-01T10:04:26.794Z,88442.00
2023-06-01T10:05:26.868Z,88444.00
2023-06-01T10:06:26.936Z,88438.00
2023-06-01T10:07:27.045Z,88438.00
2023-06-01T10:08:27.078Z,88440.00
2023-06-01T10:09:27.178Z,88440.00
2023-06-01T10:10:27.165Z,88442.00
2023-06-01T10:11:27.173Z,88440.00
2023-06-01T10:12:27.198Z,88438.00
2023-06-01T10:13:27.194Z,88434.00
2023-06-01T10:14:27.213Z,88440.00
2023-06-01T10:15:31.511Z,88436.00
2023-06-01T10:16:27.255Z,88436.00
2023-06-01T10:17:27.275Z,88436.00
2023-06-01T10:18:27.487Z,88438.00
2023-06-01T10:19:27.741Z,88432.00
2023-06-01T10:20:27.359Z,88432.00
2023-06-01T10:21:28.232Z,88432.00
2023-06-01T10:22:27.264Z,88430.00
2023-06-01T10:23:31.497Z,88432.00
2023-06-01T10:24:27.405Z,88428.00
2023-06-01T10:25:27.377Z,88426.00
2023-06-01T10:26:27.233Z,88424.00
2023-06-01T10:27:27.508Z,88424.00
2023-06-01T10:28:29.220Z,88424.00
2023-06-01T10:29:27.536Z,88424.00
2023-06-01T10:30:27.280Z,88424.00
2023-06-01T10:31:27.423Z,88422.00
2023-06-01T10:32:27.411Z,88424.00
2023-06-01T10:33:32.605Z,88422.00
2023-06-01T10:34:28.266Z,88424.00
2023-06-01T10:35:27.299Z,88424.00
2023-06-01T10:36:27.257Z,88422.00
2023-06-01T10:37:27.250Z,88422.00
2023-06-01T10:38:27.259Z,88422.00
2023-06-01T10:39:27.284Z,88418.00
2023-06-01T10:40:27.261Z,88420.00
2023-06-01T10:41:27.271Z,88416.00
2023-06-01T10:42:27.271Z,88418.00
2023-06-01T10:43:27.280Z,88420.00
2023-06-01T10:44:27.353Z,88418.00
2023-06-01T10:45:27.404Z,88416.00
2023-06-01T10:46:27.339Z,88414.00
2023-06-01T10:47:27.365Z,88414.00
2023-06-01T10:48:27.356Z,88414.00
2023-06-01T10:49:27.324Z,88416.00
2023-06-01T10:50:27.338Z,88410.00
2023-06-01T10:51:27.357Z,88412.00
2023-06-01T10:52:27.329Z,88412.00
2023-06-01T10:53:27.394Z,88410.00
2023-06-01T10:54:27.419Z,88410.00
2023-06-01T10:55:27.467Z,88408.00
2023-06-01T10:56:28.312Z,88408.00
2023-06-01T10:57:27.600Z,88412.00
2023-06-01T10:58:27.644Z,88410.00
2023-06-01T10:59:27.665Z,88410.00
2023-06-01T11:00:27.932Z,88410.00
2023-06-01T11:01:27.803Z,88412.00
2023-06-01T11:02:27.948Z,88410.00
2023-06-01T11:03:27.882Z,88412.00
2023-06-01T11:04:27.869Z,88408.00
2023-06-01T11:05:27.744Z,88408.00
2023-06-01T11:06:27.748Z,88408.00
2023-06-01T11:07:27.744Z,88410.00
2023-06-01T11:08:27.789Z,88406.00
2023-06-01T11:09:27.746Z,88404.00
2023-06-01T11:10:27.746Z,88404.00
2023-06-01T11:11:27.745Z,88404.00
2023-06-01T11:12:27.762Z,88400.00
2023-06-01T11:13:27.750Z,88402.00
2023-06-01T11:14:27.842Z,88400.00
2023-06-01T11:15:27.759Z,88402.00
2023-06-01T11:16:27.926Z,88400.00
2023-06-01T11:17:27.876Z,88400.00
2023-06-01T11:18:27.788Z,88398.00
2023-06-01T11:19:27.799Z,88400.00
2023-06-01T11:20:27.810Z,88400.00
2023-06-01T11:21:27.830Z,88400.00
2023-06-01T11:22:27.760Z,88396.00
2023-06-01T11:23:27.751Z,88398.00
2023-06-01T11:24:27.813Z,88398.00
2023-06-01T11:25:27.789Z,88398.00
2023-06-01T11:26:29.241Z,88398.00
2023-06-01T11:27:27.788Z,88396.00
2023-06-01T11:28:27.776Z,88398.00
2023-06-01T11:29:28.365Z,88398.00
2023-06-01T11:30:27.894Z,88396.00
2023-06-01T11:31:27.923Z,88396.00
2023-06-01T11:32:27.948Z,88398.00
2023-06-01T11:33:27.993Z,88396.00
2023-06-01T11:34:27.999Z,88396.00
2023-06-01T11:35:28.034Z,88394.00
2023-06-01T11:36:27.994Z,88396.00
2023-06-01T11:37:27.974Z,88394.00
2023-06-01T11:38:27.994Z,88396.00
2023-06-01T11:39:28.001Z,88394.00
2023-06-01T11:40:30.592Z,88394.00
2023-06-01T11:41:28.991Z,88394.00
2023-06-01T11:42:28.041Z,88396.00
2023-06-01T11:43:28.081Z,88393.00
2023-06-01T11:44:28.007Z,88393.00